METAR Data
IDs: Format: Raw Decoded Include TAF

Data at: 0201 UTC 29 Nov 2020

METAR for:KMPZ (Mount Pleasant Muni, IA, US)
Text:KMPZ 290135Z AUTO 20009KT 10SM CLR 06/01 A3007 RMK AO2
Temperature: 6.0°C ( 43°F)
Dewpoint: 1.0°C ( 34°F) [RH = 70%]
Pressure (altimeter):30.07 inches Hg (1018.4 mb)
Winds:from the SSW (200 degrees) at 10 MPH (9 knots; 4.6 m/s)
Visibility:10 or more sm (16+ km)
Ceiling:at least 12,000 feet AGL
Clouds:sky clear below 12,000 feet AGL
QC Flag:automated observation with no human augmentation